sensor_id;sensor_type;location;lat;lon;timestamp;P1;durP1;ratioP1;P2;durP2;ratioP2
74972;SDS011;63529;56.320;43.990;2023-02-28T00:01:16;7.43;;;4.35;;
74972;SDS011;63529;56.320;43.990;2023-02-28T00:03:42;11.90;;;4.82;;
74972;SDS011;63529;56.320;43.990;2023-02-28T00:06:08;9.77;;;4.43;;
74972;SDS011;63529;56.320;43.990;2023-02-28T00:08:35;11.77;;;4.55;;
74972;SDS011;63529;56.320;43.990;2023-02-28T00:11:02;9.55;;;3.75;;
74972;SDS011;63529;56.320;43.990;2023-02-28T00:13:29;11.88;;;4.28;;
74972;SDS011;63529;56.320;43.990;2023-02-28T00:16:02;8.77;;;3.42;;
74972;SDS011;63529;56.320;43.990;2023-02-28T00:18:30;10.43;;;3.70;;
74972;SDS011;63529;56.320;43.990;2023-02-28T00:20:57;12.60;;;4.20;;
74972;SDS011;63529;56.320;43.990;2023-02-28T00:23:24;8.27;;;3.20;;
74972;SDS011;63529;56.320;43.990;2023-02-28T00:25:50;9.02;;;4.00;;
74972;SDS011;63529;56.320;43.990;2023-02-28T00:28:16;10.38;;;4.10;;
74972;SDS011;63529;56.320;43.990;2023-02-28T00:30:43;7.63;;;3.38;;
74972;SDS011;63529;56.320;43.990;2023-02-28T00:33:09;8.00;;;3.38;;
74972;SDS011;63529;56.320;43.990;2023-02-28T00:35:35;8.80;;;3.40;;
74972;SDS011;63529;56.320;43.990;2023-02-28T00:38:01;9.52;;;3.50;;
74972;SDS011;63529;56.320;43.990;2023-02-28T00:40:28;8.88;;;3.83;;
74972;SDS011;63529;56.320;43.990;2023-02-28T00:42:54;10.93;;;3.55;;
74972;SDS011;63529;56.320;43.990;2023-02-28T00:45:20;8.75;;;3.38;;
74972;SDS011;63529;56.320;43.990;2023-02-28T00:47:46;8.40;;;3.63;;
74972;SDS011;63529;56.320;43.990;2023-02-28T00:50:18;6.13;;;3.35;;
74972;SDS011;63529;56.320;43.990;2023-02-28T00:52:45;9.07;;;4.05;;
74972;SDS011;63529;56.320;43.990;2023-02-28T00:55:13;10.48;;;4.03;;
74972;SDS011;63529;56.320;43.990;2023-02-28T00:57:39;9.25;;;3.92;;
74972;SDS011;63529;56.320;43.990;2023-02-28T01:00:06;12.48;;;3.40;;
74972;SDS011;63529;56.320;43.990;2023-02-28T01:02:33;10.38;;;3.60;;
74972;SDS011;63529;56.320;43.990;2023-02-28T01:04:59;8.55;;;3.40;;
74972;SDS011;63529;56.320;43.990;2023-02-28T01:07:29;9.48;;;3.42;;
74972;SDS011;63529;56.320;43.990;2023-02-28T01:09:54;7.20;;;3.20;;
74972;SDS011;63529;56.320;43.990;2023-02-28T01:12:20;8.02;;;3.78;;
74972;SDS011;63529;56.320;43.990;2023-02-28T01:14:46;13.00;;;5.63;;
74972;SDS011;63529;56.320;43.990;2023-02-28T01:17:12;14.48;;;5.43;;
74972;SDS011;63529;56.320;43.990;2023-02-28T01:19:38;15.52;;;5.65;;
74972;SDS011;63529;56.320;43.990;2023-02-28T01:22:04;12.10;;;5.68;;
74972;SDS011;63529;56.320;43.990;2023-02-28T01:24:31;13.13;;;5.47;;
74972;SDS011;63529;56.320;43.990;2023-02-28T01:26:58;14.52;;;4.90;;
74972;SDS011;63529;56.320;43.990;2023-02-28T01:29:24;11.07;;;4.68;;
74972;SDS011;63529;56.320;43.990;2023-02-28T01:31:51;13.88;;;5.30;;
74972;SDS011;63529;56.320;43.990;2023-02-28T01:34:17;11.50;;;4.35;;
74972;SDS011;63529;56.320;43.990;2023-02-28T01:36:44;14.38;;;4.68;;
74972;SDS011;63529;56.320;43.990;2023-02-28T01:39:11;9.85;;;4.20;;
74972;SDS011;63529;56.320;43.990;2023-02-28T01:41:38;11.73;;;4.47;;
74972;SDS011;63529;56.320;43.990;2023-02-28T01:47:10;11.15;;;3.65;;
74972;SDS011;63529;56.320;43.990;2023-02-28T01:49:36;13.05;;;4.18;;
74972;SDS011;63529;56.320;43.990;2023-02-28T01:52:02;10.18;;;4.10;;
74972;SDS011;63529;56.320;43.990;2023-02-28T01:54:30;10.02;;;4.30;;
74972;SDS011;63529;56.320;43.990;2023-02-28T01:57:09;10.45;;;4.30;;
74972;SDS011;63529;56.320;43.990;2023-02-28T01:59:40;8.75;;;3.47;;
74972;SDS011;63529;56.320;43.990;2023-02-28T02:02:12;8.73;;;3.08;;
74972;SDS011;63529;56.320;43.990;2023-02-28T02:04:40;9.30;;;3.88;;
74972;SDS011;63529;56.320;43.990;2023-02-28T02:07:32;8.07;;;4.00;;
74972;SDS011;63529;56.320;43.990;2023-02-28T02:10:24;9.68;;;4.15;;
74972;SDS011;63529;56.320;43.990;2023-02-28T02:18:43;9.73;;;3.50;;
74972;SDS011;63529;56.320;43.990;2023-02-28T02:24:03;8.65;;;3.58;;
74972;SDS011;63529;56.320;43.990;2023-02-28T02:43:37;6.32;;;2.08;;
74972;SDS011;63529;56.320;43.990;2023-02-28T02:49:10;8.38;;;2.90;;
74972;SDS011;63529;56.320;43.990;2023-02-28T02:51:41;6.05;;;2.30;;
74972;SDS011;63529;56.320;43.990;2023-02-28T02:54:15;6.95;;;2.90;;
74972;SDS011;63529;56.320;43.990;2023-02-28T02:56:46;8.65;;;2.58;;
74972;SDS011;63529;56.320;43.990;2023-02-28T02:59:16;5.38;;;2.88;;
74972;SDS011;63529;56.320;43.990;2023-02-28T03:01:57;9.43;;;3.03;;
74972;SDS011;63529;56.320;43.990;2023-02-28T03:04:26;6.07;;;2.65;;
74972;SDS011;63529;56.320;43.990;2023-02-28T03:06:58;7.95;;;3.17;;
74972;SDS011;63529;56.320;43.990;2023-02-28T03:09:24;5.45;;;2.85;;
74972;SDS011;63529;56.320;43.990;2023-02-28T03:11:52;6.13;;;2.58;;
74972;SDS011;63529;56.320;43.990;2023-02-28T03:17:46;3.05;;;1.83;;
74972;SDS011;63529;56.320;43.990;2023-02-28T03:23:28;8.30;;;2.70;;
74972;SDS011;63529;56.320;43.990;2023-02-28T03:26:05;6.72;;;2.47;;
74972;SDS011;63529;56.320;43.990;2023-02-28T03:28:39;3.13;;;1.30;;
74972;SDS011;63529;56.320;43.990;2023-02-28T03:33:46;5.30;;;2.03;;
74972;SDS011;63529;56.320;43.990;2023-02-28T03:36:22;5.32;;;2.20;;
74972;SDS011;63529;56.320;43.990;2023-02-28T03:41:30;11.57;;;3.10;;
74972;SDS011;63529;56.320;43.990;2023-02-28T03:44:23;8.05;;;2.70;;
74972;SDS011;63529;56.320;43.990;2023-02-28T03:47:04;4.93;;;2.17;;
74972;SDS011;63529;56.320;43.990;2023-02-28T03:49:35;2.63;;;1.42;;
74972;SDS011;63529;56.320;43.990;2023-02-28T03:52:15;6.85;;;2.55;;
74972;SDS011;63529;56.320;43.990;2023-02-28T03:54:48;4.97;;;2.60;;
74972;SDS011;63529;56.320;43.990;2023-02-28T03:57:33;4.80;;;2.33;;
74972;SDS011;63529;56.320;43.990;2023-02-28T04:00:12;4.80;;;2.28;;
74972;SDS011;63529;56.320;43.990;2023-02-28T04:02:44;5.80;;;2.55;;
74972;SDS011;63529;56.320;43.990;2023-02-28T04:05:10;4.75;;;2.28;;
74972;SDS011;63529;56.320;43.990;2023-02-28T04:07:36;5.40;;;2.33;;
74972;SDS011;63529;56.320;43.990;2023-02-28T04:10:06;6.07;;;2.72;;
74972;SDS011;63529;56.320;43.990;2023-02-28T04:12:32;5.50;;;2.10;;
74972;SDS011;63529;56.320;43.990;2023-02-28T04:15:03;3.80;;;2.22;;
74972;SDS011;63529;56.320;43.990;2023-02-28T04:17:30;4.82;;;1.65;;
74972;SDS011;63529;56.320;43.990;2023-02-28T04:19:56;4.38;;;1.75;;
74972;SDS011;63529;56.320;43.990;2023-02-28T04:22:23;3.35;;;1.98;;
74972;SDS011;63529;56.320;43.990;2023-02-28T04:24:51;4.32;;;1.98;;
74972;SDS011;63529;56.320;43.990;2023-02-28T04:27:19;5.47;;;1.80;;
74972;SDS011;63529;56.320;43.990;2023-02-28T04:29:45;5.40;;;1.88;;
74972;SDS011;63529;56.320;43.990;2023-02-28T04:32:11;5.32;;;2.67;;
74972;SDS011;63529;56.320;43.990;2023-02-28T04:34:37;5.25;;;2.65;;
74972;SDS011;63529;56.320;43.990;2023-02-28T04:37:04;12.13;;;3.33;;
74972;SDS011;63529;56.320;43.990;2023-02-28T04:39:34;4.43;;;1.80;;
74972;SDS011;63529;56.320;43.990;2023-02-28T04:42:01;7.38;;;2.63;;
74972;SDS011;63529;56.320;43.990;2023-02-28T04:44:27;5.10;;;2.38;;
74972;SDS011;63529;56.320;43.990;2023-02-28T04:46:53;4.30;;;2.00;;
74972;SDS011;63529;56.320;43.990;2023-02-28T04:49:19;6.13;;;2.20;;
74972;SDS011;63529;56.320;43.990;2023-02-28T04:51:44;7.18;;;2.55;;
74972;SDS011;63529;56.320;43.990;2023-02-28T04:54:10;9.82;;;2.97;;
74972;SDS011;63529;56.320;43.990;2023-02-28T04:56:38;7.40;;;2.50;;
74972;SDS011;63529;56.320;43.990;2023-02-28T04:59:04;6.93;;;2.95;;
74972;SDS011;63529;56.320;43.990;2023-02-28T05:01:31;5.88;;;2.28;;
74972;SDS011;63529;56.320;43.990;2023-02-28T05:03:59;8.50;;;2.95;;
74972;SDS011;63529;56.320;43.990;2023-02-28T05:06:29;6.97;;;2.75;;
74972;SDS011;63529;56.320;43.990;2023-02-28T05:08:56;4.10;;;1.85;;
74972;SDS011;63529;56.320;43.990;2023-02-28T05:11:29;6.15;;;2.85;;
74972;SDS011;63529;56.320;43.990;2023-02-28T05:14:04;4.85;;;2.47;;
74972;SDS011;63529;56.320;43.990;2023-02-28T05:16:32;4.97;;;2.45;;
74972;SDS011;63529;56.320;43.990;2023-02-28T05:18:58;6.30;;;2.38;;
74972;SDS011;63529;56.320;43.990;2023-02-28T05:24:00;3.72;;;2.22;;
74972;SDS011;63529;56.320;43.990;2023-02-28T05:28:54;4.43;;;2.30;;
74972;SDS011;63529;56.320;43.990;2023-02-28T05:31:20;6.78;;;2.55;;
74972;SDS011;63529;56.320;43.990;2023-02-28T05:33:47;6.55;;;2.65;;
74972;SDS011;63529;56.320;43.990;2023-02-28T05:36:13;6.40;;;2.08;;
74972;SDS011;63529;56.320;43.990;2023-02-28T05:38:39;6.07;;;2.20;;
74972;SDS011;63529;56.320;43.990;2023-02-28T05:41:06;6.82;;;2.45;;
74972;SDS011;63529;56.320;43.990;2023-02-28T05:43:33;4.88;;;2.30;;
74972;SDS011;63529;56.320;43.990;2023-02-28T05:46:02;8.32;;;2.85;;
74972;SDS011;63529;56.320;43.990;2023-02-28T05:48:32;6.53;;;2.40;;
74972;SDS011;63529;56.320;43.990;2023-02-28T05:50:59;10.63;;;3.58;;
74972;SDS011;63529;56.320;43.990;2023-02-28T05:53:25;3.33;;;2.15;;
74972;SDS011;63529;56.320;43.990;2023-02-28T05:55:51;5.88;;;2.75;;
74972;SDS011;63529;56.320;43.990;2023-02-28T05:58:18;5.25;;;2.17;;
74972;SDS011;63529;56.320;43.990;2023-02-28T06:00:44;3.80;;;1.80;;
74972;SDS011;63529;56.320;43.990;2023-02-28T06:03:10;5.85;;;2.58;;
74972;SDS011;63529;56.320;43.990;2023-02-28T06:05:36;3.90;;;2.10;;
74972;SDS011;63529;56.320;43.990;2023-02-28T06:08:04;6.85;;;2.90;;
74972;SDS011;63529;56.320;43.990;2023-02-28T06:10:32;4.40;;;2.28;;
74972;SDS011;63529;56.320;43.990;2023-02-28T06:13:00;5.47;;;2.50;;
74972;SDS011;63529;56.320;43.990;2023-02-28T06:15:28;7.80;;;3.03;;
74972;SDS011;63529;56.320;43.990;2023-02-28T06:17:54;5.35;;;2.95;;
74972;SDS011;63529;56.320;43.990;2023-02-28T06:20:22;3.88;;;2.25;;
74972;SDS011;63529;56.320;43.990;2023-02-28T06:22:49;5.32;;;2.75;;
74972;SDS011;63529;56.320;43.990;2023-02-28T06:25:19;6.97;;;2.92;;
74972;SDS011;63529;56.320;43.990;2023-02-28T06:27:46;8.82;;;3.47;;
74972;SDS011;63529;56.320;43.990;2023-02-28T06:30:12;4.38;;;2.17;;
74972;SDS011;63529;56.320;43.990;2023-02-28T06:32:38;7.75;;;3.22;;
74972;SDS011;63529;56.320;43.990;2023-02-28T06:35:04;6.00;;;2.92;;
74972;SDS011;63529;56.320;43.990;2023-02-28T06:37:31;6.60;;;2.97;;
74972;SDS011;63529;56.320;43.990;2023-02-28T06:39:58;6.05;;;2.40;;
74972;SDS011;63529;56.320;43.990;2023-02-28T06:42:24;6.03;;;3.33;;
74972;SDS011;63529;56.320;43.990;2023-02-28T06:44:55;5.60;;;2.55;;
74972;SDS011;63529;56.320;43.990;2023-02-28T06:47:21;6.60;;;3.10;;
74972;SDS011;63529;56.320;43.990;2023-02-28T06:49:47;6.55;;;3.03;;
74972;SDS011;63529;56.320;43.990;2023-02-28T06:52:13;7.22;;;3.40;;
74972;SDS011;63529;56.320;43.990;2023-02-28T06:54:40;6.82;;;2.78;;
74972;SDS011;63529;56.320;43.990;2023-02-28T06:57:06;9.70;;;3.35;;
74972;SDS011;63529;56.320;43.990;2023-02-28T06:59:32;7.13;;;2.90;;
74972;SDS011;63529;56.320;43.990;2023-02-28T07:01:58;6.38;;;3.08;;
74972;SDS011;63529;56.320;43.990;2023-02-28T07:04:24;7.20;;;4.07;;
74972;SDS011;63529;56.320;43.990;2023-02-28T07:06:50;7.43;;;3.45;;
74972;SDS011;63529;56.320;43.990;2023-02-28T07:09:16;6.85;;;3.42;;
74972;SDS011;63529;56.320;43.990;2023-02-28T07:11:42;8.35;;;4.07;;
74972;SDS011;63529;56.320;43.990;2023-02-28T07:14:08;7.00;;;3.40;;
74972;SDS011;63529;56.320;43.990;2023-02-28T07:16:35;7.68;;;3.92;;
74972;SDS011;63529;56.320;43.990;2023-02-28T07:19:02;6.82;;;3.10;;
74972;SDS011;63529;56.320;43.990;2023-02-28T07:21:28;6.57;;;3.60;;
74972;SDS011;63529;56.320;43.990;2023-02-28T07:23:53;7.65;;;4.00;;
74972;SDS011;63529;56.320;43.990;2023-02-28T07:26:21;6.38;;;3.67;;
74972;SDS011;63529;56.320;43.990;2023-02-28T07:28:48;7.07;;;3.45;;
74972;SDS011;63529;56.320;43.990;2023-02-28T07:31:15;6.28;;;3.63;;
74972;SDS011;63529;56.320;43.990;2023-02-28T07:33:42;8.55;;;4.10;;
74972;SDS011;63529;56.320;43.990;2023-02-28T07:36:10;7.97;;;3.50;;
74972;SDS011;63529;56.320;43.990;2023-02-28T07:38:41;6.53;;;3.78;;
74972;SDS011;63529;56.320;43.990;2023-02-28T07:41:09;5.93;;;3.63;;
74972;SDS011;63529;56.320;43.990;2023-02-28T07:43:35;6.70;;;3.67;;
74972;SDS011;63529;56.320;43.990;2023-02-28T07:46:05;5.53;;;3.53;;
74972;SDS011;63529;56.320;43.990;2023-02-28T07:48:36;7.20;;;4.28;;
74972;SDS011;63529;56.320;43.990;2023-02-28T07:51:02;6.30;;;4.22;;
74972;SDS011;63529;56.320;43.990;2023-02-28T07:53:28;8.52;;;3.60;;
74972;SDS011;63529;56.320;43.990;2023-02-28T07:55:57;6.05;;;3.60;;
74972;SDS011;63529;56.320;43.990;2023-02-28T07:58:25;7.55;;;4.05;;
74972;SDS011;63529;56.320;43.990;2023-02-28T08:00:52;7.75;;;4.00;;
74972;SDS011;63529;56.320;43.990;2023-02-28T08:03:18;8.73;;;3.75;;
74972;SDS011;63529;56.320;43.990;2023-02-28T08:05:45;7.75;;;4.22;;
74972;SDS011;63529;56.320;43.990;2023-02-28T08:08:11;13.52;;;3.90;;
74972;SDS011;63529;56.320;43.990;2023-02-28T08:10:37;9.25;;;4.07;;
74972;SDS011;63529;56.320;43.990;2023-02-28T08:13:03;6.95;;;3.30;;
74972;SDS011;63529;56.320;43.990;2023-02-28T08:15:29;6.82;;;3.55;;
74972;SDS011;63529;56.320;43.990;2023-02-28T08:17:55;6.72;;;3.13;;
74972;SDS011;63529;56.320;43.990;2023-02-28T08:20:22;5.88;;;3.15;;
74972;SDS011;63529;56.320;43.990;2023-02-28T08:22:49;7.82;;;3.30;;
74972;SDS011;63529;56.320;43.990;2023-02-28T08:25:15;6.78;;;3.58;;
74972;SDS011;63529;56.320;43.990;2023-02-28T08:27:41;8.55;;;3.65;;
74972;SDS011;63529;56.320;43.990;2023-02-28T08:30:09;7.32;;;3.75;;
74972;SDS011;63529;56.320;43.990;2023-02-28T08:32:37;6.00;;;2.92;;
74972;SDS011;63529;56.320;43.990;2023-02-28T08:35:03;6.75;;;3.00;;
74972;SDS011;63529;56.320;43.990;2023-02-28T08:37:29;11.25;;;5.60;;
74972;SDS011;63529;56.320;43.990;2023-02-28T08:39:55;7.25;;;3.50;;
74972;SDS011;63529;56.320;43.990;2023-02-28T08:42:21;10.50;;;5.07;;
74972;SDS011;63529;56.320;43.990;2023-02-28T08:44:47;6.38;;;2.83;;
74972;SDS011;63529;56.320;43.990;2023-02-28T08:47:13;7.00;;;3.72;;
74972;SDS011;63529;56.320;43.990;2023-02-28T08:49:39;8.10;;;3.75;;
74972;SDS011;63529;56.320;43.990;2023-02-28T08:52:05;6.10;;;3.15;;
74972;SDS011;63529;56.320;43.990;2023-02-28T08:54:31;9.77;;;3.17;;
74972;SDS011;63529;56.320;43.990;2023-02-28T08:56:59;8.40;;;3.22;;
74972;SDS011;63529;56.320;43.990;2023-02-28T08:59:25;9.57;;;5.30;;
74972;SDS011;63529;56.320;43.990;2023-02-28T09:01:51;10.55;;;4.20;;
74972;SDS011;63529;56.320;43.990;2023-02-28T09:04:18;10.07;;;3.95;;
74972;SDS011;63529;56.320;43.990;2023-02-28T09:06:43;10.05;;;3.72;;
74972;SDS011;63529;56.320;43.990;2023-02-28T09:09:10;9.32;;;3.85;;
74972;SDS011;63529;56.320;43.990;2023-02-28T09:11:36;7.35;;;3.33;;
74972;SDS011;63529;56.320;43.990;2023-02-28T09:14:02;7.65;;;3.47;;
74972;SDS011;63529;56.320;43.990;2023-02-28T09:16:29;8.98;;;3.72;;
74972;SDS011;63529;56.320;43.990;2023-02-28T09:18:56;11.98;;;3.60;;
74972;SDS011;63529;56.320;43.990;2023-02-28T09:21:22;10.60;;;3.90;;
74972;SDS011;63529;56.320;43.990;2023-02-28T09:23:49;8.60;;;3.70;;
74972;SDS011;63529;56.320;43.990;2023-02-28T09:26:19;8.02;;;4.00;;
74972;SDS011;63529;56.320;43.990;2023-02-28T09:28:48;11.10;;;3.90;;
74972;SDS011;63529;56.320;43.990;2023-02-28T09:31:15;11.40;;;4.82;;
74972;SDS011;63529;56.320;43.990;2023-02-28T09:33:47;10.52;;;3.70;;
74972;SDS011;63529;56.320;43.990;2023-02-28T09:36:14;11.50;;;4.85;;
74972;SDS011;63529;56.320;43.990;2023-02-28T09:38:40;9.60;;;4.50;;
74972;SDS011;63529;56.320;43.990;2023-02-28T09:41:14;10.60;;;4.63;;
74972;SDS011;63529;56.320;43.990;2023-02-28T09:43:44;7.93;;;3.92;;
74972;SDS011;63529;56.320;43.990;2023-02-28T09:48:51;8.57;;;4.13;;
74972;SDS011;63529;56.320;43.990;2023-02-28T09:53:44;5.78;;;3.03;;
74972;SDS011;63529;56.320;43.990;2023-02-28T10:01:31;9.55;;;4.20;;
74972;SDS011;63529;56.320;43.990;2023-02-28T10:06:57;8.43;;;4.05;;
74972;SDS011;63529;56.320;43.990;2023-02-28T10:09:27;9.40;;;3.78;;
74972;SDS011;63529;56.320;43.990;2023-02-28T10:11:59;11.85;;;4.05;;
74972;SDS011;63529;56.320;43.990;2023-02-28T10:14:33;9.18;;;4.30;;
74972;SDS011;63529;56.320;43.990;2023-02-28T10:22:53;12.88;;;4.50;;
74972;SDS011;63529;56.320;43.990;2023-02-28T10:28:12;9.90;;;3.53;;
74972;SDS011;63529;56.320;43.990;2023-02-28T10:30:50;9.63;;;3.95;;
74972;SDS011;63529;56.320;43.990;2023-02-28T10:35:51;10.18;;;4.50;;
74972;SDS011;63529;56.320;43.990;2023-02-28T10:38:22;16.10;;;5.75;;
74972;SDS011;63529;56.320;43.990;2023-02-28T10:40:50;9.50;;;4.35;;
74972;SDS011;63529;56.320;43.990;2023-02-28T10:43:19;14.60;;;6.10;;
74972;SDS011;63529;56.320;43.990;2023-02-28T10:46:01;12.70;;;4.72;;
74972;SDS011;63529;56.320;43.990;2023-02-28T10:51:36;12.73;;;4.85;;
74972;SDS011;63529;56.320;43.990;2023-02-28T10:54:03;10.48;;;3.80;;
74972;SDS011;63529;56.320;43.990;2023-02-28T10:56:31;9.80;;;4.18;;
74972;SDS011;63529;56.320;43.990;2023-02-28T10:58:59;11.85;;;4.22;;
74972;SDS011;63529;56.320;43.990;2023-02-28T11:01:48;9.38;;;4.18;;
74972;SDS011;63529;56.320;43.990;2023-02-28T11:04:16;10.07;;;3.97;;
74972;SDS011;63529;56.320;43.990;2023-02-28T11:06:42;9.55;;;4.20;;
74972;SDS011;63529;56.320;43.990;2023-02-28T11:09:20;8.57;;;4.60;;
74972;SDS011;63529;56.320;43.990;2023-02-28T11:11:50;13.80;;;4.55;;
74972;SDS011;63529;56.320;43.990;2023-02-28T11:14:25;10.80;;;4.57;;
74972;SDS011;63529;56.320;43.990;2023-02-28T11:16:57;11.45;;;4.82;;
74972;SDS011;63529;56.320;43.990;2023-02-28T11:19:43;9.38;;;4.55;;
74972;SDS011;63529;56.320;43.990;2023-02-28T11:22:15;12.02;;;4.55;;
74972;SDS011;63529;56.320;43.990;2023-02-28T11:24:45;9.23;;;3.92;;
74972;SDS011;63529;56.320;43.990;2023-02-28T11:27:25;8.13;;;4.45;;
74972;SDS011;63529;56.320;43.990;2023-02-28T11:32:21;10.27;;;4.82;;
74972;SDS011;63529;56.320;43.990;2023-02-28T11:35:33;8.00;;;3.28;;
74972;SDS011;63529;56.320;43.990;2023-02-28T11:37:42;9.95;;;3.95;;
74972;SDS011;63529;56.320;43.990;2023-02-28T11:40:14;9.88;;;4.55;;
74972;SDS011;63529;56.320;43.990;2023-02-28T11:48:08;10.25;;;4.10;;
74972;SDS011;63529;56.320;43.990;2023-02-28T11:55:44;10.10;;;4.55;;
74972;SDS011;63529;56.320;43.990;2023-02-28T12:04:22;12.32;;;4.15;;
74972;SDS011;63529;56.320;43.990;2023-02-28T12:09:43;11.05;;;4.38;;
74972;SDS011;63529;56.320;43.990;2023-02-28T12:15:24;13.80;;;4.97;;
74972;SDS011;63529;56.320;43.990;2023-02-28T12:29:02;11.27;;;4.80;;
74972;SDS011;63529;56.320;43.990;2023-02-28T12:31:41;13.07;;;4.75;;
74972;SDS011;63529;56.320;43.990;2023-02-28T12:34:16;10.52;;;4.32;;
74972;SDS011;63529;56.320;43.990;2023-02-28T12:36:47;10.05;;;3.95;;
74972;SDS011;63529;56.320;43.990;2023-02-28T12:39:19;9.85;;;4.70;;
74972;SDS011;63529;56.320;43.990;2023-02-28T12:41:53;11.48;;;3.83;;
74972;SDS011;63529;56.320;43.990;2023-02-28T12:44:39;15.90;;;6.43;;
74972;SDS011;63529;56.320;43.990;2023-02-28T12:47:34;10.65;;;5.13;;
74972;SDS011;63529;56.320;43.990;2023-02-28T12:50:04;20.67;;;10.57;;
74972;SDS011;63529;56.320;43.990;2023-02-28T12:55:07;12.05;;;4.15;;
74972;SDS011;63529;56.320;43.990;2023-02-28T12:58:06;10.68;;;5.00;;
74972;SDS011;63529;56.320;43.990;2023-02-28T13:00:44;11.35;;;4.07;;
74972;SDS011;63529;56.320;43.990;2023-02-28T13:03:31;8.55;;;3.63;;
74972;SDS011;63529;56.320;43.990;2023-02-28T13:09:19;10.18;;;3.90;;
74972;SDS011;63529;56.320;43.990;2023-02-28T13:11:47;11.63;;;4.00;;
74972;SDS011;63529;56.320;43.990;2023-02-28T13:14:29;10.85;;;3.63;;
74972;SDS011;63529;56.320;43.990;2023-02-28T13:17:00;9.77;;;4.07;;
74972;SDS011;63529;56.320;43.990;2023-02-28T13:19:31;6.95;;;3.92;;
74972;SDS011;63529;56.320;43.990;2023-02-28T13:21:59;8.52;;;3.72;;
74972;SDS011;63529;56.320;43.990;2023-02-28T13:24:38;13.48;;;4.75;;
74972;SDS011;63529;56.320;43.990;2023-02-28T13:29:36;10.15;;;4.55;;
74972;SDS011;63529;56.320;43.990;2023-02-28T13:34:37;9.73;;;4.22;;
74972;SDS011;63529;56.320;43.990;2023-02-28T13:42:53;9.60;;;4.20;;
74972;SDS011;63529;56.320;43.990;2023-02-28T13:45:21;7.70;;;3.80;;
74972;SDS011;63529;56.320;43.990;2023-02-28T13:48:33;11.35;;;3.85;;
74972;SDS011;63529;56.320;43.990;2023-02-28T13:50:41;9.00;;;4.07;;
74972;SDS011;63529;56.320;43.990;2023-02-28T14:08:57;10.68;;;4.55;;
74972;SDS011;63529;56.320;43.990;2023-02-28T14:11:30;8.38;;;4.28;;
74972;SDS011;63529;56.320;43.990;2023-02-28T14:13:57;9.23;;;3.63;;
74972;SDS011;63529;56.320;43.990;2023-02-28T14:16:24;10.00;;;4.50;;
74972;SDS011;63529;56.320;43.990;2023-02-28T14:19:14;13.38;;;5.00;;
74972;SDS011;63529;56.320;43.990;2023-02-28T14:27:43;10.02;;;4.30;;
74972;SDS011;63529;56.320;43.990;2023-02-28T14:38:51;12.13;;;4.78;;
74972;SDS011;63529;56.320;43.990;2023-02-28T14:41:21;13.30;;;5.32;;
74972;SDS011;63529;56.320;43.990;2023-02-28T14:44:03;15.15;;;5.38;;
74972;SDS011;63529;56.320;43.990;2023-02-28T14:46:41;10.90;;;4.85;;
74972;SDS011;63529;56.320;43.990;2023-02-28T14:49:26;12.48;;;4.20;;
74972;SDS011;63529;56.320;43.990;2023-02-28T14:52:03;9.00;;;4.22;;
74972;SDS011;63529;56.320;43.990;2023-02-28T14:54:31;10.93;;;4.55;;
74972;SDS011;63529;56.320;43.990;2023-02-28T14:56:57;11.40;;;5.00;;
74972;SDS011;63529;56.320;43.990;2023-02-28T14:59:27;11.38;;;4.68;;
74972;SDS011;63529;56.320;43.990;2023-02-28T15:04:52;12.85;;;5.30;;
74972;SDS011;63529;56.320;43.990;2023-02-28T15:07:19;10.48;;;4.80;;
74972;SDS011;63529;56.320;43.990;2023-02-28T15:10:06;9.07;;;4.43;;
74972;SDS011;63529;56.320;43.990;2023-02-28T15:12:35;13.13;;;5.25;;
74972;SDS011;63529;56.320;43.990;2023-02-28T15:15:02;11.88;;;4.72;;
74972;SDS011;63529;56.320;43.990;2023-02-28T15:17:29;14.57;;;5.15;;
74972;SDS011;63529;56.320;43.990;2023-02-28T15:19:55;10.95;;;4.90;;
74972;SDS011;63529;56.320;43.990;2023-02-28T15:22:29;13.95;;;5.53;;
74972;SDS011;63529;56.320;43.990;2023-02-28T15:25:01;12.05;;;5.20;;
74972;SDS011;63529;56.320;43.990;2023-02-28T15:27:32;12.10;;;5.20;;
74972;SDS011;63529;56.320;43.990;2023-02-28T15:30:06;9.32;;;4.72;;
74972;SDS011;63529;56.320;43.990;2023-02-28T15:32:37;10.88;;;4.72;;
74972;SDS011;63529;56.320;43.990;2023-02-28T15:35:25;14.57;;;6.18;;
74972;SDS011;63529;56.320;43.990;2023-02-28T15:37:55;12.50;;;5.22;;
74972;SDS011;63529;56.320;43.990;2023-02-28T15:40:24;12.48;;;5.60;;
74972;SDS011;63529;56.320;43.990;2023-02-28T15:43:07;12.35;;;5.55;;
74972;SDS011;63529;56.320;43.990;2023-02-28T15:45:45;12.50;;;5.30;;
74972;SDS011;63529;56.320;43.990;2023-02-28T15:48:16;11.25;;;5.80;;
74972;SDS011;63529;56.320;43.990;2023-02-28T15:50:47;11.65;;;5.43;;
74972;SDS011;63529;56.320;43.990;2023-02-28T15:53:19;10.95;;;5.55;;
74972;SDS011;63529;56.320;43.990;2023-02-28T15:55:56;11.18;;;5.32;;
74972;SDS011;63529;56.320;43.990;2023-02-28T15:58:26;12.27;;;5.45;;
74972;SDS011;63529;56.320;43.990;2023-02-28T16:01:06;10.23;;;4.88;;
74972;SDS011;63529;56.320;43.990;2023-02-28T16:03:49;13.50;;;5.28;;
74972;SDS011;63529;56.320;43.990;2023-02-28T16:08:53;13.45;;;6.00;;
74972;SDS011;63529;56.320;43.990;2023-02-28T16:11:22;13.10;;;6.32;;
74972;SDS011;63529;56.320;43.990;2023-02-28T16:13:48;10.80;;;5.20;;
74972;SDS011;63529;56.320;43.990;2023-02-28T16:16:16;11.68;;;4.90;;
74972;SDS011;63529;56.320;43.990;2023-02-28T16:18:43;15.48;;;5.82;;
74972;SDS011;63529;56.320;43.990;2023-02-28T16:21:09;12.93;;;4.95;;
74972;SDS011;63529;56.320;43.990;2023-02-28T16:23:35;12.20;;;5.05;;
74972;SDS011;63529;56.320;43.990;2023-02-28T16:26:02;12.63;;;5.40;;
74972;SDS011;63529;56.320;43.990;2023-02-28T16:28:30;16.08;;;5.40;;
74972;SDS011;63529;56.320;43.990;2023-02-28T16:30:59;11.02;;;5.28;;
74972;SDS011;63529;56.320;43.990;2023-02-28T16:33:28;12.85;;;5.72;;
74972;SDS011;63529;56.320;43.990;2023-02-28T16:35:55;12.00;;;5.13;;
74972;SDS011;63529;56.320;43.990;2023-02-28T16:38:21;11.57;;;5.25;;
74972;SDS011;63529;56.320;43.990;2023-02-28T16:40:49;12.40;;;5.18;;
74972;SDS011;63529;56.320;43.990;2023-02-28T16:43:17;12.95;;;5.00;;
74972;SDS011;63529;56.320;43.990;2023-02-28T16:45:46;12.77;;;5.47;;
74972;SDS011;63529;56.320;43.990;2023-02-28T16:48:13;14.30;;;5.10;;
74972;SDS011;63529;56.320;43.990;2023-02-28T16:50:41;11.35;;;5.38;;
74972;SDS011;63529;56.320;43.990;2023-02-28T16:53:10;13.32;;;5.43;;
74972;SDS011;63529;56.320;43.990;2023-02-28T16:55:36;10.35;;;4.78;;
74972;SDS011;63529;56.320;43.990;2023-02-28T16:58:03;11.43;;;4.90;;
74972;SDS011;63529;56.320;43.990;2023-02-28T17:00:31;12.98;;;4.78;;
74972;SDS011;63529;56.320;43.990;2023-02-28T17:02:57;11.43;;;5.28;;
74972;SDS011;63529;56.320;43.990;2023-02-28T17:05:24;9.70;;;4.75;;
74972;SDS011;63529;56.320;43.990;2023-02-28T17:07:52;8.60;;;4.22;;
74972;SDS011;63529;56.320;43.990;2023-02-28T17:10:19;10.07;;;4.70;;
74972;SDS011;63529;56.320;43.990;2023-02-28T17:12:50;10.15;;;4.30;;
74972;SDS011;63529;56.320;43.990;2023-02-28T17:15:17;10.95;;;5.05;;
74972;SDS011;63529;56.320;43.990;2023-02-28T17:17:44;10.82;;;4.18;;
74972;SDS011;63529;56.320;43.990;2023-02-28T17:20:13;11.63;;;4.85;;
74972;SDS011;63529;56.320;43.990;2023-02-28T17:22:43;8.05;;;3.75;;
74972;SDS011;63529;56.320;43.990;2023-02-28T17:25:10;12.95;;;4.63;;
74972;SDS011;63529;56.320;43.990;2023-02-28T17:27:36;10.35;;;4.50;;